^^
MeteoGriva-Weather Station Historical Data
Daily Summary for August 05, 2020 Units:  Metric    English   Both
Daily Weekly Monthly Yearly Custom
  High: Low: Average:
Temperature: 27.7 °C 19.5 °C 23.4 °C
Dew Point: 24.7 °C 19.3 °C 21.5 °C
Humidity: 99% 75.3% 90%
Wind Speed: 12.3km/h 0km/h 2.2km/h
Wind Gust: 28km/h - -
Wind- - South
Pressure: 1008.1 hPa 1004.4 hPa -
Precipitation: 1.0 mm    
Historical Graphs
 
 
Tabular Data for August 05, 2020
Time Temperature Dew Point Pressure Wind Wind Speed Wind Gust Humidity Rainfall Rate (Hourly) solar
00:04 22.6 °C 21.8 °C 1005.8 hPa SSE 0.7 km/h 7.9 km/h 94.9% 0.0 mm 0 W/m2
00:09 22.6 °C 21.8 °C 1005.8 hPa Calm   12.2 km/h 95% 0.0 mm 0 W/m2
00:14 22.4 °C 21.6 °C 1005.8 hPa Calm   7.9 km/h 95% 0.0 mm 0 W/m2
00:19 22.3 °C 21.5 °C 1005.8 hPa South 0.5 km/h 7.9 km/h 95% 0.0 mm 0 W/m2
00:24 22.3 °C 21.5 °C 1005.8 hPa South 2.1 km/h 7.9 km/h 95% 0.0 mm 0 W/m2
00:29 22.4 °C 21.4 °C 1005.8 hPa SSE 2.9 km/h 12.2 km/h 94% 0.0 mm 0 W/m2
00:34 22.3 °C 21.3 °C 1006.1 hPa SSW 1.3 km/h 12.2 km/h 94% 0.0 mm 0 W/m2
00:39 22.3 °C 21.1 °C 1006.1 hPa South 2.5 km/h 7.9 km/h 93.1% 0.0 mm 0 W/m2
00:44 22.3 °C 20.9 °C 1005.8 hPa SSW 2.2 km/h 7.9 km/h 92.2% 0.0 mm 0 W/m2
00:49 22.3 °C 20.9 °C 1005.8 hPa South 1.9 km/h 12.2 km/h 92% 0.0 mm 0 W/m2
00:54 22.3 °C 20.9 °C 1005.8 hPa South 2.4 km/h 12.2 km/h 92% 0.0 mm 0 W/m2
00:59 22.3 °C 21 °C 1005.8 hPa South 3.5 km/h 12.2 km/h 92.6% 0.0 mm 0 W/m2
01:04 22.2 °C 21.2 °C 1005.8 hPa SSW 2.5 km/h 12.2 km/h 93.7% 0.0 mm 0 W/m2
01:09 22.2 °C 21.3 °C 1005.8 hPa South 1.6 km/h 12.2 km/h 94.6% 0.0 mm 0 W/m2
01:14 22.3 °C 21.5 °C 1005.8 hPa SSW 2 km/h 7.9 km/h 95.3% 0.0 mm 0 W/m2
01:19 22.3 °C 21.5 °C 1005.8 hPa South 3.2 km/h 12.2 km/h 95.1% 0.0 mm 0 W/m2
01:24 22.3 °C 21.5 °C 1005.8 hPa South 1.1 km/h 12.2 km/h 95% 0.0 mm 0 W/m2
01:29 22.4 °C 21.6 °C 1005.8 hPa South 1.6 km/h 7.9 km/h 95% 0.0 mm 0 W/m2
01:34 22.6 °C 21.7 °C 1005.8 hPa South 3.5 km/h 7.9 km/h 94.6% 0.0 mm 0 W/m2
01:39 22.6 °C 21.6 °C 1005.8 hPa South 2.2 km/h 12.2 km/h 94% 0.0 mm 0 W/m2
01:44 22.7 °C 21.6 °C 1005.8 hPa South 1 km/h 7.9 km/h 93.9% 0.0 mm 0 W/m2
01:49 22.7 °C 21.6 °C 1005.8 hPa SSE 0.3 km/h 7.9 km/h 93.3% 0.0 mm 0 W/m2
01:54 22.6 °C 21.7 °C 1005.8 hPa Calm     94.4% 0.0 mm 0 W/m2
01:59 22.5 °C 21.7 °C 1005.8 hPa Calm     95.4% 0.0 mm 0 W/m2
02:04 22.5 °C 21.8 °C 1005.4 hPa Calm     96% 0.0 mm 0 W/m2
02:09 22.4 °C 21.7 °C 1005.4 hPa Calm     96% 0.0 mm 0 W/m2
02:14 22.2 °C 21.5 °C 1005.4 hPa Calm     96% 0.0 mm 0 W/m2
02:19 22.1 °C 21.4 °C 1005.4 hPa Calm     96.1% 0.0 mm 0 W/m2
02:24 22.1 °C 21.4 °C 1005.4 hPa Calm     96% 0.0 mm 0 W/m2
02:29 22.1 °C 21.4 °C 1005.1 hPa Calm     96% 0.0 mm 0 W/m2
02:34 22 °C 21.3 °C 1005.1 hPa Calm     96% 0.0 mm 0 W/m2
02:39 21.9 °C 21.3 °C 1005.4 hPa Calm     96.3% 0.0 mm 0 W/m2
02:44 21.9 °C 21.2 °C 1005.1 hPa Calm     96% 0.0 mm 0 W/m2
02:49 21.9 °C 21.3 °C 1005.1 hPa Calm     96.6% 0.0 mm 0 W/m2
02:54 21.7 °C 21.2 °C 1005.4 hPa Calm     97% 0.0 mm 0 W/m2
02:59 21.6 °C 21.1 °C 1005.1 hPa Calm     97% 0.0 mm 0 W/m2
03:04 21.5 °C 20.9 °C 1004.7 hPa Calm     96.3% 0.0 mm 0 W/m2
03:09 21.5 °C 20.7 °C 1005.1 hPa Calm     95.1% 0.0 mm 0 W/m2
03:14 21.6 °C 20.8 °C 1005.1 hPa Calm     95% 0.0 mm 0 W/m2
03:19 21.6 °C 20.8 °C 1005.1 hPa Calm     95% 0.0 mm 0 W/m2
03:24 21.6 °C 20.4 °C 1005.1 hPa Calm     93.1% 0.0 mm 0 W/m2
03:29 21.6 °C 20.4 °C 1005.1 hPa Calm     92.8% 0.0 mm 0 W/m2
03:34 21.6 °C 20.4 °C 1005.1 hPa Calm     92.9% 0.0 mm 0 W/m2
03:39 21.6 °C 20.4 °C 1005.1 hPa Calm     93% 0.0 mm 0 W/m2
03:44 21.6 °C 20.6 °C 1004.7 hPa Calm     93.9% 0.0 mm 0 W/m2
03:49 21.6 °C 20.4 °C 1004.7 hPa Calm     93.2% 0.0 mm 0 W/m2
03:54 21.6 °C 20.4 °C 1004.7 hPa Calm     93.1% 0.0 mm 0 W/m2
03:59 21.5 °C 20.5 °C 1004.7 hPa Calm     93.9% 0.0 mm 0 W/m2
04:04 21.5 °C 20.5 °C 1004.7 hPa Calm     94% 0.0 mm 0 W/m2
04:09 21.4 °C 20.5 °C 1004.7 hPa Calm     94.4% 0.0 mm 0 W/m2
04:14 21.3 °C 20.3 °C 1004.7 hPa Calm     94.2% 0.0 mm 0 W/m2
04:19 21.1 °C 19.8 °C 1005.1 hPa Calm     92.7% 0.0 mm 0 W/m2
04:24 21.1 °C 20 °C 1004.7 hPa Calm     93.7% 0.0 mm 0 W/m2
04:29 21.1 °C 20 °C 1004.7 hPa Calm     93.7% 0.0 mm 0 W/m2
04:34 21.2 °C 19.7 °C 1004.7 hPa Calm     91% 0.0 mm 0 W/m2
04:39 21.3 °C 19.7 °C 1004.7 hPa Calm     90.7% 0.0 mm 0 W/m2
04:44 21.3 °C 19.6 °C 1004.7 hPa Calm     90.2% 0.0 mm 0 W/m2
04:49 21.3 °C 19.6 °C 1004.7 hPa Calm     90.2% 0.0 mm 0 W/m2
04:54 21.2 °C 19.8 °C 1004.7 hPa Calm     91.7% 0.0 mm 0 W/m2
04:59 21.1 °C 19.6 °C 1004.7 hPa Calm     91.3% 0.0 mm 0 W/m2
05:04 21.1 °C 19.6 °C 1004.7 hPa Calm     91% 0.0 mm 0 W/m2
05:09 21.2 °C 19.8 °C 1004.7 hPa Calm     92% 0.0 mm 0 W/m2
05:14 21.2 °C 20 °C 1004.7 hPa Calm     93.4% 0.0 mm 0 W/m2
05:19 21 °C 20 °C 1004.7 hPa Calm     93.8% 0.0 mm 0 W/m2
05:24 21 °C 19.8 °C 1004.7 hPa Calm     93% 0.0 mm 0 W/m2
05:29 21 °C 19.8 °C 1004.7 hPa Calm     93% 0.0 mm 0 W/m2
05:34 21.1 °C 19.9 °C 1004.7 hPa Calm     93% 0.0 mm 0 W/m2
05:39 21.2 °C 20 °C 1004.7 hPa Calm     93% 0.0 mm 0 W/m2
05:44 21.2 °C 20 °C 1004.7 hPa Calm     92.9% 0.0 mm 0 W/m2
05:49 21.2 °C 19.8 °C 1005.1 hPa Calm     92.1% 0.0 mm 0 W/m2
05:54 21.3 °C 19.9 °C 1005.1 hPa Calm     91.8% 0.0 mm 0 W/m2
05:59 21.6 °C 20 °C 1005.1 hPa Calm     90.7% 0.0 mm 0 W/m2
06:04 21.6 °C 20.1 °C 1004.7 hPa Calm     90.8% 0.0 mm 0 W/m2
06:09 21.6 °C 20.1 °C 1004.7 hPa Calm     91% 0.0 mm 0 W/m2
06:14 21.8 °C 20.1 °C 1004.7 hPa Calm     90.4% 0.0 mm 0 W/m2
06:19 21.9 °C 20.6 °C 1004.7 hPa Calm     92.1% 0.0 mm 0 W/m2
06:24 21.9 °C 20.5 °C 1005.1 hPa Calm     91.8% 0.0 mm 0 W/m2
06:29 22 °C 20.5 °C 1005.1 hPa Calm     91.7% 0.0 mm 0 W/m2
06:34 21.9 °C 20.7 °C 1004.7 hPa Calm     92.8% 0.0 mm 4 W/m2
06:39 21.8 °C 20.6 °C 1004.7 hPa Calm     92.9% 0.0 mm 7 W/m2
06:44 21.9 °C 20.7 °C 1004.7 hPa Calm     93% 0.0 mm 13 W/m2
06:49 21.9 °C 20.7 °C 1005.1 hPa Calm     93% 0.0 mm 21 W/m2
06:54 22 °C 20.6 °C 1004.7 hPa Calm   4 km/h 92.2% 0.0 mm 34 W/m2
06:59 22.3 °C 20.9 °C 1005.1 hPa Calm     92.2% 0.0 mm 48 W/m2
07:04 22.4 °C 21 °C 1005.1 hPa Calm     91.8% 0.0 mm 65 W/m2
07:09 22.4 °C 20.9 °C 1005.1 hPa Calm     91% 0.0 mm 84 W/m2
07:14 22.5 °C 21 °C 1005.1 hPa Calm     90.7% 0.0 mm 98 W/m2
07:19 22.2 °C 20.6 °C 1005.1 hPa Calm     90.5% 0.0 mm 110 W/m2
07:24 22.2 °C 20.3 °C 1005.1 hPa Calm     89.2% 0.0 mm 120 W/m2
07:29 22.2 °C 20.2 °C 1005.4 hPa Calm     88.6% 0.0 mm 120 W/m2
07:34 22.4 °C 20.2 °C 1005.1 hPa Calm     87.4% 0.0 mm 139 W/m2
07:39 23.1 °C 21 °C 1005.1 hPa Calm     88% 0.0 mm 162 W/m2
07:44 23.2 °C 21.1 °C 1005.1 hPa Calm     88.1% 0.0 mm 179 W/m2
07:49 23.2 °C 21.2 °C 1005.1 hPa Calm     88% 0.0 mm 186 W/m2
07:54 23.4 °C 20.8 °C 1005.1 hPa Calm     85.9% 0.0 mm 196 W/m2
07:59 24.6 °C 21.7 °C 1005.1 hPa Calm     84.1% 0.0 mm 211 W/m2
08:04 24.5 °C 21.8 °C 1005.1 hPa Calm     85.2% 0.0 mm 218 W/m2
08:09 24.5 °C 22.1 °C 1005.1 hPa Calm     86.3% 0.0 mm 225 W/m2
08:14 24.5 °C 22.2 °C 1005.1 hPa Calm     87.2% 0.0 mm 225 W/m2
08:19 24.6 °C 22.6 °C 1005.1 hPa Calm     88.7% 0.0 mm 228 W/m2
08:24 24.6 °C 22.8 °C 1005.1 hPa Calm     89.8% 0.0 mm 240 W/m2
08:29 24.6 °C 22.8 °C 1005.4 hPa Calm     90.1% 0.0 mm 250 W/m2
08:34 24.6 °C 22.8 °C 1005.1 hPa Calm     89.9% 0.0 mm 247 W/m2
08:39 24.5 °C 23 °C 1005.4 hPa Calm     91.2% 0.0 mm 248 W/m2
08:44 24.6 °C 23.1 °C 1005.4 hPa Calm     91.6% 0.0 mm 255 W/m2
08:49 24.6 °C 23.3 °C 1005.4 hPa Calm     92.6% 0.0 mm 259 W/m2
08:54 24.7 °C 23 °C 1005.4 hPa Calm     90.4% 0.0 mm 264 W/m2
08:59 25.1 °C 23.3 °C 1005.4 hPa Calm     89.6% 0.0 mm 269 W/m2
09:04 25.2 °C 23.2 °C 1005.4 hPa Calm   4 km/h 88.7% 0.0 mm 277 W/m2
09:09 25.2 °C 23.3 °C 1005.4 hPa Calm   4 km/h 89% 0.0 mm 283 W/m2
09:14 25.3 °C 23.4 °C 1005.4 hPa Calm   4 km/h 89.3% 0.0 mm 288 W/m2
09:19 25.2 °C 23.3 °C 1005.8 hPa Calm     89.2% 0.0 mm 293 W/m2
09:24 25.2 °C 23.3 °C 1005.8 hPa SSE 0.2 km/h 4 km/h 89.2% 0.0 mm 299 W/m2
09:29 25.3 °C 23.4 °C 1005.8 hPa ESE 0.5 km/h 7.9 km/h 88.9% 0.0 mm 303 W/m2
09:34 25.3 °C 23.4 °C 1005.8 hPa Calm   4 km/h 88.7% 0.0 mm 313 W/m2
09:39 25.3 °C 23.7 °C 1005.8 hPa Calm   4 km/h 90.9% 0.0 mm 326 W/m2
09:44 25.3 °C 23 °C 1005.8 hPa Calm   4 km/h 87% 0.0 mm 336 W/m2
09:49 25.4 °C 22.9 °C 1005.8 hPa Calm     85.8% 0.0 mm 349 W/m2
09:54 25.7 °C 22.9 °C 1005.8 hPa SE 0.1 km/h 7.9 km/h 84.6% 0.0 mm 366 W/m2
09:59 27.5 °C 24.2 °C 1005.8 hPa SE 0.3 km/h 4 km/h 82% 0.0 mm 403 W/m2
10:04 27.7 °C 24.6 °C 1006.1 hPa SSE 1.9 km/h 12.2 km/h 83.4% 0.0 mm 453 W/m2
10:09 27.6 °C 24.7 °C 1006.1 hPa SSE 1.1 km/h 12.2 km/h 84.5% 0.0 mm 501 W/m2
10:14 27.4 °C 24.6 °C 1006.1 hPa SE 1.4 km/h 7.9 km/h 84.4% 0.0 mm 478 W/m2
10:19 26.4 °C 23.7 °C 1006.1 hPa SE 2.6 km/h 12.2 km/h 85% 0.0 mm 471 W/m2
10:24 26.3 °C 23.7 °C 1006.1 hPa ESE 2 km/h 12.2 km/h 85.4% 0.0 mm 469 W/m2
10:29 26.5 °C 23.6 °C 1005.8 hPa SE 1.9 km/h 16.3 km/h 84% 0.0 mm 505 W/m2
10:34 26.6 °C 23.5 °C 1005.8 hPa SSE 2.3 km/h 16.3 km/h 82.8% 0.0 mm 527 W/m2
10:39 27.1 °C 23.9 °C 1005.8 hPa ESE 1.9 km/h 7.9 km/h 82.6% 0.0 mm 525 W/m2
10:44 27.3 °C 24.6 °C 1006.1 hPa SSE 3 km/h 16.3 km/h 85.7% 0.0 mm 237 W/m2
10:49 27.1 °C 24.7 °C 1006.1 hPa SSE 4.6 km/h 16.3 km/h 86.7% 0.0 mm 232 W/m2
10:54 26.9 °C 24.1 °C 1005.8 hPa South 4.5 km/h 16.3 km/h 84.7% 0.0 mm 224 W/m2
10:59 25.9 °C 23.5 °C 1006.1 hPa South 6.8 km/h 16.3 km/h 86.9% 0.0 mm 287 W/m2
11:04 25.6 °C 23.1 °C 1006.1 hPa South 7.2 km/h 16.3 km/h 85.7% 0.0 mm 472 W/m2
11:09 25.7 °C 23.3 °C 1005.8 hPa SSE 7.2 km/h 16.3 km/h 86.3% 0.0 mm 501 W/m2
11:14 25.8 °C 23.2 °C 1005.8 hPa SSE 4.7 km/h 16.3 km/h 85.7% 0.0 mm 497 W/m2
11:19 26.7 °C 23.6 °C 1005.8 hPa South 5.2 km/h 16.3 km/h 83.3% 0.0 mm 489 W/m2
11:24 26.9 °C 24 °C 1005.8 hPa South 6.8 km/h 20.1 km/h 84.1% 0.0 mm 430 W/m2
11:29 26.7 °C 24 °C 1005.8 hPa South 8.8 km/h 24.1 km/h 84.7% 0.0 mm 235 W/m2
11:34 26.5 °C 23.7 °C 1006.1 hPa South 9.5 km/h 24.1 km/h 84.5% 0.0 mm 273 W/m2
11:39 25.9 °C 23 °C 1006.1 hPa South 8.4 km/h 24.1 km/h 83.9% 0.0 mm 282 W/m2
11:44 25.7 °C 22.5 °C 1005.8 hPa South 8.8 km/h 16.3 km/h 82.3% 0.0 mm 357 W/m2
11:49 25.7 °C 22.2 °C 1005.8 hPa SSE 9.6 km/h 20.1 km/h 81.1% 0.0 mm 495 W/m2
11:54 25.8 °C 22 °C 1006.1 hPa South 6.5 km/h 20.1 km/h 79.7% 0.0 mm 565 W/m2
11:59 26.1 °C 22.3 °C 1006.1 hPa South 7.6 km/h 20.1 km/h 79.3% 0.0 mm 358 W/m2
12:04 26.3 °C 22.6 °C 1006.1 hPa South 8.6 km/h 20.1 km/h 80.1% 0.0 mm 442 W/m2
12:09 26.4 °C 22.7 °C 1006.1 hPa South 11.6 km/h 24.1 km/h 80.2% 0.0 mm 513 W/m2
12:14 26.4 °C 23 °C 1006.1 hPa South 12.3 km/h 24.1 km/h 81.3% 0.0 mm 422 W/m2
12:19 26.1 °C 22.9 °C 1006.1 hPa SSE 12.1 km/h 24.1 km/h 82.1% 0.0 mm 460 W/m2
12:24 26 °C 22.9 °C 1006.1 hPa South 10.4 km/h 20.1 km/h 82.9% 0.0 mm 305 W/m2
12:29 25.9 °C 23.1 °C 1005.8 hPa South 10.2 km/h 20.1 km/h 84.4% 0.0 mm 383 W/m2
12:34 25.9 °C 23.1 °C 1006.1 hPa South 9.6 km/h 20.1 km/h 84.3% 0.0 mm 388 W/m2
12:39 25.8 °C 23.2 °C 1005.8 hPa South 10.9 km/h 20.1 km/h 85.3% 0.0 mm 436 W/m2
12:44 25.8 °C 23.3 °C 1006.1 hPa SSW 11.2 km/h 24.1 km/h 86.1% 0.0 mm 354 W/m2
12:49 25.7 °C 23.3 °C 1006.1 hPa South 10.6 km/h 24.1 km/h 86.2% 0.0 mm 423 W/m2
12:54 25.8 °C 23.5 °C 1006.1 hPa South 10.5 km/h 20.1 km/h 86.8% 0.0 mm 374 W/m2
12:59 25.5 °C 23.6 °C 1006.4 hPa SSW 10 km/h 24.1 km/h 89.3% 0.0 mm 278 W/m2
13:04 25.4 °C 23.6 °C 1006.1 hPa South 8.7 km/h 20.1 km/h 90% 0.0 mm 256 W/m2
13:09 25.3 °C 23.7 °C 1006.1 hPa South 7.8 km/h 20.1 km/h 90.8% 0.0 mm 264 W/m2
13:14 25.3 °C 23.7 °C 1006.1 hPa South 6.5 km/h 16.3 km/h 90.6% 0.0 mm 288 W/m2
13:19 25.5 °C 23.7 °C 1006.4 hPa South 7.4 km/h 16.3 km/h 90% 0.0 mm 316 W/m2
13:24 25.5 °C 24 °C 1006.1 hPa South 7.1 km/h 16.3 km/h 91.2% 0.0 mm 209 W/m2
13:29 25.5 °C 24 °C 1006.1 hPa SSE 6.8 km/h 20.1 km/h 91.8% 0.0 mm 281 W/m2
13:34 25.4 °C 23.8 °C 1006.1 hPa SSE 8.6 km/h 16.3 km/h 91.1% 0.0 mm 296 W/m2
13:39 25.3 °C 23.9 °C 1006.1 hPa South 10 km/h 20.1 km/h 91.9% 0.0 mm 411 W/m2
13:44 25.2 °C 23.6 °C 1006.1 hPa South 5.8 km/h 20.1 km/h 91.2% 0.0 mm 428 W/m2
13:49 25.3 °C 23.4 °C 1006.1 hPa South 4.6 km/h 16.3 km/h 89.9% 0.0 mm 336 W/m2
13:54 25.4 °C 23.5 °C 1006.1 hPa South 4 km/h 16.3 km/h 89% 0.0 mm 228 W/m2
13:59 25.5 °C 23.7 °C 1006.1 hPa South 5.2 km/h 16.3 km/h 89.9% 0.0 mm 194 W/m2
14:04 25.5 °C 23.7 °C 1006.1 hPa South 3.9 km/h 16.3 km/h 90% 0.0 mm 210 W/m2
14:09 25.6 °C 23.7 °C 1005.8 hPa South 4.6 km/h 12.2 km/h 89.8% 0.0 mm 207 W/m2
14:14 25.5 °C 23.9 °C 1006.1 hPa South 7.6 km/h 16.3 km/h 91% 0.0 mm 216 W/m2
14:19 25.5 °C 24 °C 1005.8 hPa SSE 1.7 km/h 16.3 km/h 91.7% 0.0 mm 214 W/m2
14:24 25.4 °C 23.9 °C 1005.8 hPa SSE 4.1 km/h 12.2 km/h 91.3% 0.0 mm 230 W/m2
14:29 25.4 °C 23.9 °C 1005.8 hPa SSE 3.3 km/h 16.3 km/h 91.4% 0.0 mm 272 W/m2
14:34 25.4 °C 23.8 °C 1005.8 hPa SSE 4.1 km/h 7.9 km/h 90.9% 0.0 mm 261 W/m2
14:39 25.6 °C 23.9 °C 1005.8 hPa South 1 km/h 7.9 km/h 90.4% 0.0 mm 303 W/m2
14:44 25.8 °C 24.1 °C 1005.8 hPa WSW 0.3 km/h 7.9 km/h 90.3% 0.0 mm 166 W/m2
14:49 25.8 °C 23.9 °C 1005.8 hPa Calm     89% 0.0 mm 90 W/m2
14:54 25.7 °C 22.3 °C 1005.4 hPa ESE 0.1 km/h 4 km/h 81.3% 0.0 mm 204 W/m2
14:59 25.5 °C 21.1 °C 1005.4 hPa Calm     76.5% 0.0 mm 285 W/m2
15:04 25.2 °C 20.6 °C 1005.4 hPa Calm     75.3% 0.0 mm 271 W/m2
15:09 25.2 °C 20.8 °C 1005.4 hPa Calm     76.3% 0.0 mm 166 W/m2
15:14 25.3 °C 20.7 °C 1005.4 hPa Calm     75.8% 0.0 mm 154 W/m2
15:19 25.7 °C 21.2 °C 1005.4 hPa Calm     76.1% 0.0 mm 138 W/m2
15:24 26.1 °C 22.6 °C 1005.1 hPa Calm     81% 0.0 mm 105 W/m2
15:29 26 °C 22.8 °C 1005.1 hPa NNE 0.6 km/h 7.9 km/h 82.1% 0.0 mm 86 W/m2
15:34 25.8 °C 23.1 °C 1005.1 hPa NNE 4.3 km/h 12.2 km/h 85.1% 0.0 mm 139 W/m2
15:39 25.3 °C 22.7 °C 1005.1 hPa NNE 1 km/h 7.9 km/h 85.4% 0.0 mm 195 W/m2
15:43 24.7 °C 21.9 °C 1005.1 hPa Calm   4 km/h 84.4% 0.0 mm 209 W/m2
15:49 24.7 °C 21.7 °C 1004.7 hPa NNE 1.5 km/h 7.9 km/h 83.7% 0.0 mm 260 W/m2
15:54 24.8 °C 22 °C 1005.4 hPa NE 1 km/h 7.9 km/h 84.3% 0.0 mm 167 W/m2
15:59 25 °C 22.1 °C 1005.1 hPa Calm   4 km/h 84.1% 0.0 mm 193 W/m2
16:04 25.4 °C 22.5 °C 1005.1 hPa NNW 0.2 km/h 4 km/h 84% 0.0 mm 182 W/m2
16:09 25.3 °C 22.5 °C 1005.1 hPa Calm   4 km/h 84.4% 0.0 mm 177 W/m2
16:14 25.3 °C 22.4 °C 1005.1 hPa Calm     84.1% 0.0 mm 427 W/m2
16:19 25.6 °C 22.4 °C 1004.7 hPa Calm     82.2% 0.0 mm 518 W/m2
16:24 26.6 °C 23.2 °C 1004.7 hPa NNE 0.9 km/h 7.9 km/h 81.6% 0.0 mm 492 W/m2
16:29 26.5 °C 22.9 °C 1004.7 hPa NE 1.1 km/h 7.9 km/h 80.6% 0.0 mm 481 W/m2
16:34 26.5 °C 22.9 °C 1004.7 hPa NE 0.6 km/h 7.9 km/h 80.6% 0.0 mm 484 W/m2
16:39 26.4 °C 22.6 °C 1004.7 hPa North 5.5 km/h 12.2 km/h 79.8% 0.0 mm 484 W/m2
16:44 26 °C 22.4 °C 1004.7 hPa North 5.9 km/h 20.1 km/h 80.4% 0.0 mm 474 W/m2
16:49 26 °C 22.6 °C 1004.7 hPa NNW 6.3 km/h 20.1 km/h 81.6% 0.0 mm 382 W/m2
16:54 25.9 °C 22.8 °C 1004.7 hPa NNE 2.9 km/h 12.2 km/h 82.9% 0.0 mm 365 W/m2
16:59 25.8 °C 22.7 °C 1004.7 hPa NE 0.6 km/h 7.9 km/h 82.7% 0.0 mm 428 W/m2
17:04 25.8 °C 22.2 °C 1004.7 hPa NNE 0.1 km/h 4 km/h 80.5% 0.0 mm 411 W/m2
17:09 25.8 °C 22.4 °C 1004.4 hPa NE 1 km/h 7.9 km/h 81.3% 0.0 mm 432 W/m2
17:14 25.9 °C 22.2 °C 1004.4 hPa NNW 1.8 km/h 12.2 km/h 80.3% 0.0 mm 433 W/m2
17:19 25.9 °C 22.2 °C 1004.4 hPa North 8.3 km/h 20.1 km/h 79.8% 0.0 mm 413 W/m2
17:24 25.4 °C 21.9 °C 1004.4 hPa North 8 km/h 20.1 km/h 81.2% 0.0 mm 392 W/m2
17:29 25.4 °C 21.9 °C 1004.4 hPa North 6.8 km/h 20.1 km/h 81.2% 0.0 mm 394 W/m2
17:34 25.3 °C 22.3 °C 1004.4 hPa NNE 10.3 km/h 20.1 km/h 83.4% 0.0 mm 145 W/m2
17:39 25 °C 22.1 °C 1004.4 hPa North 10 km/h 24.1 km/h 84.3% 0.0 mm 425 W/m2
17:44 24.1 °C 21.1 °C 1004.7 hPa North 9.6 km/h 24.1 km/h 83.4% 0.0 mm 452 W/m2
17:49 24.1 °C 20.9 °C 1004.7 hPa North 10.6 km/h 20.1 km/h 82.5% 0.0 mm 455 W/m2
17:54 24.1 °C 20.8 °C 1005.1 hPa NNW 9.1 km/h 20.1 km/h 82% 0.0 mm 326 W/m2
17:59 24.1 °C 20.9 °C 1004.7 hPa NNE 7.4 km/h 20.1 km/h 82.7% 0.0 mm 169 W/m2
18:04 23.8 °C 20.7 °C 1005.1 hPa North 11.6 km/h 28 km/h 82.8% 0.0 mm 107 W/m2
18:09 23.8 °C 20.5 °C 1005.1 hPa NNW 8.8 km/h 28 km/h 82% 0.0 mm 93 W/m2
18:14 23.7 °C 20.4 °C 1004.7 hPa NNW 10.3 km/h 28 km/h 82% 0.0 mm 85 W/m2
18:19 23.6 °C 20.3 °C 1004.7 hPa NNW 10.7 km/h 24.1 km/h 82.3% 0.0 mm 65 W/m2
18:24 23 °C 20 °C 1004.7 hPa NNW 5.9 km/h 20.1 km/h 83% 0.0 mm 47 W/m2
18:29 23 °C 20 °C 1004.7 hPa NNW 5.1 km/h 16.3 km/h 83% 0.0 mm 36 W/m2
18:34 23 °C 19.7 °C 1004.7 hPa North 7.6 km/h 20.1 km/h 81.6% 0.0 mm 25 W/m2
18:39 23 °C 19.6 °C 1004.7 hPa North 3.7 km/h 16.3 km/h 81% 0.0 mm 21 W/m2
18:44 22.9 °C 19.6 °C 1004.7 hPa North 3.1 km/h 12.2 km/h 81.3% 0.0 mm 23 W/m2
18:49 22.9 °C 19.5 °C 1004.7 hPa North 3.6 km/h 16.3 km/h 81% 0.0 mm 29 W/m2
18:54 22.9 °C 19.7 °C 1004.7 hPa North 3.2 km/h 16.3 km/h 81.8% 0.0 mm 35 W/m2
18:59 22.9 °C 19.5 °C 1004.7 hPa NNW 5.2 km/h 16.3 km/h 81.1% 0.0 mm 50 W/m2
19:04 23.1 °C 19.3 °C 1004.7 hPa NNW 4.7 km/h 20.1 km/h 79% 0.0 mm 52 W/m2
19:09 23.1 °C 19.3 °C 1005.1 hPa NNW 2.7 km/h 20.1 km/h 79% 0.0 mm 40 W/m2
19:14 23.1 °C 19.4 °C 1004.7 hPa NNE 1.3 km/h 7.9 km/h 79.6% 0.0 mm 40 W/m2
19:19 23.1 °C 19.6 °C 1004.4 hPa North 3.1 km/h 12.2 km/h 80.3% 0.0 mm 39 W/m2
19:24 23 °C 19.4 °C 1004.7 hPa NNW 0.8 km/h 12.2 km/h 80.1% 0.0 mm 34 W/m2
19:29 23 °C 19.5 °C 1004.7 hPa NW 1 km/h 12.2 km/h 80.7% 0.0 mm 39 W/m2
19:34 23 °C 19.5 °C 1004.7 hPa NNW 1 km/h 7.9 km/h 80.7% 0.0 mm 40 W/m2
19:39 23 °C 19.7 °C 1005.1 hPa Calm     81.6% 0.0 mm 37 W/m2
19:44 23 °C 19.8 °C 1005.4 hPa Calm     82% 0.0 mm 30 W/m2
19:49 23 °C 20 °C 1005.4 hPa Calm     83.1% 0.0 mm 20 W/m2
19:54 23 °C 20.1 °C 1005.4 hPa Calm     84% 0.0 mm 14 W/m2
19:59 23 °C 20.2 °C 1005.4 hPa Calm     84.7% 0.0 mm 8 W/m2
20:04 22.8 °C 20.3 °C 1005.1 hPa Calm   4 km/h 85.7% 0.0 mm 5 W/m2
20:09 22.8 °C 20.7 °C 1005.4 hPa Calm     88% 0.0 mm 2 W/m2
20:14 22.8 °C 21 °C 1005.1 hPa Calm     89.8% 0.0 mm 0 W/m2
20:19 22.8 °C 21.2 °C 1005.1 hPa Calm     90.5% 0.0 mm 0 W/m2
20:24 22.7 °C 21 °C 1005.4 hPa Calm     90% 0.0 mm 0 W/m2
20:29 22.7 °C 21.1 °C 1005.4 hPa Calm     90.7% 0.0 mm 0 W/m2
20:34 22.7 °C 21.2 °C 1005.8 hPa Calm     91.1% 0.0 mm 0 W/m2
20:39 22.7 °C 21.7 °C 1005.8 hPa Calm     93.9% 0.0 mm 0 W/m2
20:44 22.4 °C 22 °C 1005.8 hPa Calm     97.6% 1.8 mm 0 W/m2
20:49 22.3 °C 22.1 °C 1005.8 hPa Calm     99% 1.8 mm 0 W/m2
20:54 22.1 °C 21.9 °C 1005.8 hPa Calm     99% 1.8 mm 0 W/m2
20:59 21.9 °C 21.7 °C 1005.8 hPa Calm     99% 1.8 mm 0 W/m2
21:04 21 °C 20.8 °C 1005.8 hPa Calm     99% 1.8 mm 0 W/m2
21:09 20.6 °C 20.4 °C 1005.8 hPa Calm     99% 0.0 mm 0 W/m2
21:14 20.6 °C 20.4 °C 1005.8 hPa Calm     99% 1.8 mm 0 W/m2
21:19 20.6 °C 20.3 °C 1005.8 hPa Calm     99% 1.8 mm 0 W/m2
21:24 20.1 °C 19.9 °C 1006.1 hPa Calm     99% 1.8 mm 0 W/m2
21:29 20 °C 19.8 °C 1006.4 hPa Calm     99% 0.0 mm 0 W/m2
21:34 20 °C 19.8 °C 1006.4 hPa Calm     99% 0.0 mm 0 W/m2
21:39 20 °C 19.8 °C 1006.4 hPa Calm     99% 0.0 mm 0 W/m2
21:44 20.2 °C 20 °C 1006.4 hPa South 1.7 km/h 12.2 km/h 99% 0.0 mm 0 W/m2
21:49 20.2 °C 20 °C 1006.4 hPa South 3.2 km/h 12.2 km/h 99% 0.0 mm 0 W/m2
21:54 20.2 °C 20 °C 1006.8 hPa South 6.6 km/h 16.3 km/h 99% 0.0 mm 0 W/m2
21:59 20.2 °C 20 °C 1006.8 hPa South 1.7 km/h 16.3 km/h 99% 0.0 mm 0 W/m2
22:04 20 °C 19.8 °C 1006.4 hPa Calm     99% 0.0 mm 0 W/m2
22:09 19.9 °C 19.7 °C 1006.8 hPa Calm     99% 0.0 mm 0 W/m2
22:14 19.9 °C 19.7 °C 1006.4 hPa Calm     99% 0.0 mm 0 W/m2
22:19 19.9 °C 19.7 °C 1006.4 hPa Calm     99% 0.0 mm 0 W/m2
22:24 19.8 °C 19.6 °C 1005.8 hPa NNW 2.8 km/h 12.2 km/h 99% 0.0 mm 0 W/m2
22:29 19.7 °C 19.5 °C 1005.8 hPa Calm   7.9 km/h 99% 0.0 mm 0 W/m2
22:34 19.7 °C 19.5 °C 1006.1 hPa Calm     99% 0.0 mm 0 W/m2
22:39 19.7 °C 19.5 °C 1006.1 hPa Calm     99% 0.0 mm 0 W/m2
22:44 20 °C 19.8 °C 1006.4 hPa Calm   4 km/h 99% 0.0 mm 0 W/m2
22:49 20.2 °C 20 °C 1006.4 hPa Calm     99% 0.0 mm 0 W/m2
22:54 20.2 °C 20 °C 1006.4 hPa Calm     99% 0.0 mm 0 W/m2
22:59 20.1 °C 19.9 °C 1006.4 hPa Calm     99% 0.0 mm 0 W/m2
23:04 20 °C 19.8 °C 1007.1 hPa Calm     99% 0.0 mm 0 W/m2
23:09 19.9 °C 19.7 °C 1007.1 hPa Calm     99% 0.0 mm 0 W/m2
23:14 19.9 °C 19.7 °C 1007.5 hPa Calm     99% 0.0 mm 0 W/m2
23:19 19.8 °C 19.7 °C 1007.5 hPa South 0.5 km/h 7.9 km/h 99% 0.0 mm 0 W/m2
23:24 19.6 °C 19.5 °C 1007.8 hPa South 3.4 km/h 12.2 km/h 99% 0.0 mm 0 W/m2
23:29 19.5 °C 19.3 °C 1007.8 hPa South 0.1 km/h 7.9 km/h 99% 0.0 mm 0 W/m2
23:34 19.5 °C 19.3 °C 1008.1 hPa Calm   4 km/h 99% 0.0 mm 0 W/m2
23:39 19.5 °C 19.3 °C 1008.1 hPa Calm     99% 0.0 mm 0 W/m2
23:44 19.5 °C 19.3 °C 1007.8 hPa Calm   7.9 km/h 99% 0.0 mm 0 W/m2
23:49 19.5 °C 19.3 °C 1007.8 hPa NNW 3 km/h 12.2 km/h 99% 0.0 mm 0 W/m2
23:54 19.5 °C 19.3 °C 1007.8 hPa NNW 1 km/h 12.2 km/h 99% 0.0 mm 0 W/m2
23:59 19.5 °C 19.3 °C 1007.8 hPa NW 0.9 km/h 7.9 km/h 99% 0.0 mm 0 W/m2
Juneau County Weather
Compliments of Weather Underground - 2 mb